Time;durP1;ratioP1;P1;durP2;ratioP2;P2;SDS_P1;SDS_P2;PMS_P1;PMS_P2;Temp;Humidity;BMP_temperature;BMP_pressure;BME280_temperature;BME280_humidity;BME280_pressure;Samples;Min_cycle;Max_cycle;Signal;HPM_P1;HPM_P2
2022/05/23 00:00:25;;;;;;;1999.90;999.90;;;;;;;;;;5089037;27;20504;-76
2022/05/23 00:02:53;;;;;;;1999.90;999.90;;;;;;;;;;5098636;27;20896;-76
2022/05/23 00:05:20;;;;;;;1999.90;999.90;;;;;;;;;;5088951;27;20827;-76
2022/05/23 00:07:50;;;;;;;1999.90;999.90;;;;;;;;;;5088074;27;20419;-74
2022/05/23 00:10:19;;;;;;;1999.90;999.90;;;;;;;;;;5087895;27;20399;-75
2022/05/23 00:12:46;;;;;;;1999.90;999.90;;;;;;;;;;5089601;27;20434;-75
2022/05/23 00:15:14;;;;;;;1999.90;999.90;;;;;;;;;;5091196;27;20504;-76
2022/05/23 00:17:42;;;;;;;1999.90;999.90;;;;;;;;;;5092439;27;20388;-75
2022/05/23 00:20:11;;;;;;;1999.90;999.90;;;;;;;;;;5077644;27;20522;-74
2022/05/23 00:22:39;;;;;;;1999.90;999.90;;;;;;;;;;5092235;27;20403;-75
2022/05/23 00:25:09;;;;;;;1999.90;999.90;;;;;;;;;;5090291;27;20912;-74
2022/05/23 00:27:39;;;;;;;1999.90;999.90;;;;;;;;;;5096467;27;20416;-74
2022/05/23 00:30:12;;;;;;;1999.90;999.90;;;;;;;;;;5094764;27;20399;-76
2022/05/23 00:35:25;;;;;;;1999.90;999.90;;;;;;;;;;5099421;27;20426;-77
2022/05/23 00:37:55;;;;;;;1999.90;999.90;;;;;;;;;;5095781;27;20384;-75
2022/05/23 00:40:38;;;;;;;1999.90;999.90;;;;;;;;;;5098392;27;20461;-76
2022/05/23 00:43:15;;;;;;;1999.90;999.90;;;;;;;;;;5094715;27;20893;-76
2022/05/23 00:45:45;;;;;;;1999.90;999.90;;;;;;;;;;5096017;27;20425;-76
2022/05/23 00:48:13;;;;;;;1999.90;999.90;;;;;;;;;;5096456;27;20403;-75
2022/05/23 00:50:44;;;;;;;1999.90;999.90;;;;;;;;;;5096086;27;20412;-74
2022/05/23 00:53:11;;;;;;;1999.90;999.90;;;;;;;;;;5096818;27;20399;-74
2022/05/23 00:55:41;;;;;;;1999.90;999.90;;;;;;;;;;5094292;27;20989;-75
2022/05/23 00:58:17;;;;;;;1999.90;999.90;;;;;;;;;;5082301;27;20397;-74
2022/05/23 01:00:44;;;;;;;1999.90;999.90;;;;;;;;;;5095919;27;21081;-75
2022/05/23 01:03:15;;;;;;;1999.90;999.90;;;;;;;;;;5096177;27;20383;-76
2022/05/23 01:05:43;;;;;;;1999.90;999.90;;;;;;;;;;5095029;27;21028;-75
2022/05/23 01:08:14;;;;;;;1999.90;999.90;;;;;;;;;;5093974;27;20415;-75
2022/05/23 01:10:44;;;;;;;1999.90;999.90;;;;;;;;;;5078198;28;20510;-76
2022/05/23 01:13:13;;;;;;;1999.90;999.90;;;;;;;;;;5097262;27;20795;-77
2022/05/23 01:15:44;;;;;;;1999.90;999.90;;;;;;;;;;5097242;27;20417;-76
2022/05/23 01:18:12;;;;;;;1999.90;999.90;;;;;;;;;;5096385;27;20490;-77
2022/05/23 01:20:40;;;;;;;1999.90;999.90;;;;;;;;;;5088446;27;21206;-76
2022/05/23 01:23:17;;;;;;;1999.90;999.90;;;;;;;;;;5097888;27;20403;-76
2022/05/23 01:26:09;;;;;;;1999.90;999.90;;;;;;;;;;5097029;27;20391;-75
2022/05/23 01:28:47;;;;;;;1999.90;999.90;;;;;;;;;;5099247;27;20932;-76
2022/05/23 01:31:33;;;;;;;1999.90;999.90;;;;;;;;;;5099873;27;20407;-75
2022/05/23 01:34:10;;;;;;;1999.90;999.90;;;;;;;;;;5079349;27;20383;-75
2022/05/23 01:36:48;;;;;;;1999.90;999.90;;;;;;;;;;5098335;27;20549;-74
2022/05/23 01:39:15;;;;;;;1999.90;999.90;;;;;;;;;;5095148;27;20391;-75
2022/05/23 01:41:44;;;;;;;1999.90;999.90;;;;;;;;;;5099317;27;20403;-75
2022/05/23 01:44:12;;;;;;;1999.90;999.90;;;;;;;;;;5098686;27;20398;-76
2022/05/23 01:46:43;;;;;;;1999.90;999.90;;;;;;;;;;5078052;28;20394;-76
2022/05/23 01:49:25;;;;;;;1999.90;999.90;;;;;;;;;;5098671;27;20450;-75
2022/05/23 01:51:52;;;;;;;1999.90;999.90;;;;;;;;;;5100467;27;20460;-76
2022/05/23 01:54:26;;;;;;;1999.90;999.90;;;;;;;;;;5116220;27;20514;-75
2022/05/23 01:56:55;;;;;;;1999.90;999.90;;;;;;;;;;5097779;27;20426;-75
2022/05/23 02:02:19;;;;;;;1999.90;999.90;;;;;;;;;;5077082;27;20409;-75
2022/05/23 02:04:47;;;;;;;1999.90;999.90;;;;;;;;;;5100139;27;20403;-76
2022/05/23 02:07:16;;;;;;;1999.90;999.90;;;;;;;;;;5080040;27;20383;-76
2022/05/23 02:09:44;;;;;;;1999.90;999.90;;;;;;;;;;5097855;27;20758;-76
2022/05/23 02:12:21;;;;;;;1999.90;999.90;;;;;;;;;;5096096;27;20395;-76
2022/05/23 02:14:51;;;;;;;1999.90;999.90;;;;;;;;;;5081792;28;20646;-75
2022/05/23 02:17:48;;;;;;;1999.90;999.90;;;;;;;;;;5096307;27;20395;-75
2022/05/23 02:20:17;;;;;;;1999.90;999.90;;;;;;;;;;5078809;27;21250;-76
2022/05/23 02:22:45;;;;;;;1999.90;999.90;;;;;;;;;;5099632;27;20411;-76
2022/05/23 02:25:19;;;;;;;1999.90;999.90;;;;;;;;;;5077825;27;20949;-76
2022/05/23 02:27:49;;;;;;;1999.90;999.90;;;;;;;;;;5080411;28;20403;-76
2022/05/23 02:30:17;;;;;;;1999.90;999.90;;;;;;;;;;5079981;27;20395;-76
2022/05/23 02:32:46;;;;;;;1999.90;999.90;;;;;;;;;;5082382;28;20537;-75
2022/05/23 02:35:15;;;;;;;1999.90;999.90;;;;;;;;;;5094030;27;20494;-76
2022/05/23 02:37:43;;;;;;;1999.90;999.90;;;;;;;;;;5094286;27;20398;-76
2022/05/23 02:40:11;;;;;;;1999.90;999.90;;;;;;;;;;5096864;27;20387;-76
2022/05/23 02:42:39;;;;;;;1999.90;999.90;;;;;;;;;;5097537;27;20420;-76
2022/05/23 02:45:09;;;;;;;1999.90;999.90;;;;;;;;;;5081155;27;21354;-76
2022/05/23 02:47:43;;;;;;;1999.90;999.90;;;;;;;;;;5080931;28;20406;-76
2022/05/23 02:50:12;;;;;;;1999.90;999.90;;;;;;;;;;5096756;27;20403;-76
2022/05/23 02:52:42;;;;;;;1999.90;999.90;;;;;;;;;;5079339;28;20839;-76
2022/05/23 02:55:14;;;;;;;1999.90;999.90;;;;;;;;;;5091866;27;20543;-76
2022/05/23 02:57:42;;;;;;;1999.90;999.90;;;;;;;;;;5079546;28;20485;-77
2022/05/23 03:00:17;;;;;;;1999.90;999.90;;;;;;;;;;5079506;27;20387;-76
2022/05/23 03:03:04;;;;;;;1999.90;999.90;;;;;;;;;;5076974;28;20395;-76
2022/05/23 03:05:40;;;;;;;1999.90;999.90;;;;;;;;;;5080632;28;21096;-77
2022/05/23 03:08:08;;;;;;;1999.90;999.90;;;;;;;;;;5092739;27;20388;-76
2022/05/23 03:10:36;;;;;;;1999.90;999.90;;;;;;;;;;5097287;27;20383;-76
2022/05/23 03:13:04;;;;;;;1999.90;999.90;;;;;;;;;;5079174;27;20943;-77
2022/05/23 03:15:33;;;;;;;1999.90;999.90;;;;;;;;;;5098580;27;20461;-76
2022/05/23 03:18:01;;;;;;;1999.90;999.90;;;;;;;;;;5098113;27;20773;-75
2022/05/23 03:20:30;;;;;;;1999.90;999.90;;;;;;;;;;5097282;27;20445;-75
2022/05/23 03:28:32;;;;;;;1999.90;999.90;;;;;;;;;;5098088;27;20395;-77
2022/05/23 03:31:01;;;;;;;1999.90;999.90;;;;;;;;;;5076798;27;20403;-76
2022/05/23 03:33:29;;;;;;;1999.90;999.90;;;;;;;;;;5094479;27;20415;-76
2022/05/23 03:35:57;;;;;;;1999.90;999.90;;;;;;;;;;5095752;27;20426;-76
2022/05/23 03:38:27;;;;;;;1999.90;999.90;;;;;;;;;;5115131;27;20925;-76
2022/05/23 03:40:55;;;;;;;1999.90;999.90;;;;;;;;;;5096312;27;20534;-76
2022/05/23 03:43:22;;;;;;;1999.90;999.90;;;;;;;;;;5081261;27;20399;-77
2022/05/23 03:45:50;;;;;;;1999.90;999.90;;;;;;;;;;5091837;27;20460;-76
2022/05/23 03:48:19;;;;;;;1999.90;999.90;;;;;;;;;;5078772;27;20486;-76
2022/05/23 03:50:47;;;;;;;1999.90;999.90;;;;;;;;;;5097266;27;20482;-76
2022/05/23 03:53:14;;;;;;;1999.90;999.90;;;;;;;;;;5080779;27;20885;-76
2022/05/23 03:55:55;;;;;;;1999.90;999.90;;;;;;;;;;5077240;27;20403;-76
2022/05/23 03:58:24;;;;;;;1999.90;999.90;;;;;;;;;;5077800;27;20409;-77
2022/05/23 04:01:22;;;;;;;1999.90;999.90;;;;;;;;;;5094249;27;20458;-77
2022/05/23 04:04:04;;;;;;;1999.90;999.90;;;;;;;;;;5064018;27;20806;-77
2022/05/23 04:06:38;;;;;;;1999.90;999.90;;;;;;;;;;5094183;27;20395;-76
2022/05/23 04:09:07;;;;;;;1999.90;999.90;;;;;;;;;;5080986;27;20406;-76
2022/05/23 04:11:41;;;;;;;1999.90;999.90;;;;;;;;;;5095550;27;20410;-77
2022/05/23 04:14:09;;;;;;;1999.90;999.90;;;;;;;;;;5097386;27;20745;-76
2022/05/23 04:16:40;;;;;;;1999.90;999.90;;;;;;;;;;5093948;27;21046;-77
2022/05/23 04:19:10;;;;;;;1999.90;999.90;;;;;;;;;;5097436;27;20419;-76
2022/05/23 04:21:48;;;;;;;1999.90;999.90;;;;;;;;;;5071668;28;20493;-77
2022/05/23 04:24:24;;;;;;;1999.90;999.90;;;;;;;;;;5096985;27;20395;-77
2022/05/23 04:26:58;;;;;;;1999.90;999.90;;;;;;;;;;5091903;27;20392;-75
2022/05/23 04:29:31;;;;;;;1999.90;999.90;;;;;;;;;;5079208;28;20424;-76
2022/05/23 04:31:59;;;;;;;1999.90;999.90;;;;;;;;;;5097345;27;20393;-78
2022/05/23 04:37:25;;;;;;;1999.90;999.90;;;;;;;;;;5079509;27;20388;-77
2022/05/23 04:39:52;;;;;;;1999.90;999.90;;;;;;;;;;5094904;27;20848;-77
2022/05/23 04:42:20;;;;;;;1999.90;999.90;;;;;;;;;;5069914;27;20396;-77
2022/05/23 04:44:48;;;;;;;1999.90;999.90;;;;;;;;;;5079027;28;20418;-76
2022/05/23 04:50:11;;;;;;;1999.90;999.90;;;;;;;;;;5079149;27;20462;-78
2022/05/23 04:52:43;;;;;;;1999.90;999.90;;;;;;;;;;5078731;27;20423;-76
2022/05/23 04:55:13;;;;;;;1999.90;999.90;;;;;;;;;;5078261;27;20522;-76
2022/05/23 04:57:41;;;;;;;1999.90;999.90;;;;;;;;;;5091164;27;20391;-77
2022/05/23 05:00:10;;;;;;;1999.90;999.90;;;;;;;;;;5096312;27;20498;-76
2022/05/23 05:02:45;;;;;;;1999.90;999.90;;;;;;;;;;5080193;27;20358;-76
2022/05/23 05:05:14;;;;;;;1999.90;999.90;;;;;;;;;;5100832;27;20469;-77
2022/05/23 05:07:50;;;;;;;1999.90;999.90;;;;;;;;;;5079073;28;20391;-78
2022/05/23 05:10:20;;;;;;;1999.90;999.90;;;;;;;;;;5094345;27;20411;-77
2022/05/23 05:12:49;;;;;;;1999.90;999.90;;;;;;;;;;5095869;27;20403;-78
2022/05/23 05:15:20;;;;;;;1999.90;999.90;;;;;;;;;;5080005;27;20425;-77
2022/05/23 05:17:48;;;;;;;1999.90;999.90;;;;;;;;;;5086594;27;20403;-78
2022/05/23 05:20:19;;;;;;;1999.90;999.90;;;;;;;;;;5082124;27;20840;-78
2022/05/23 05:22:55;;;;;;;1999.90;999.90;;;;;;;;;;5095691;27;20391;-77
2022/05/23 05:25:41;;;;;;;1999.90;999.90;;;;;;;;;;5095057;27;20414;-77
2022/05/23 05:28:16;;;;;;;1999.90;999.90;;;;;;;;;;5078168;27;20520;-78
2022/05/23 05:30:45;;;;;;;1999.90;999.90;;;;;;;;;;5097680;27;20653;-77
2022/05/23 05:33:15;;;;;;;1999.90;999.90;;;;;;;;;;5094175;27;20427;-76
2022/05/23 05:35:47;;;;;;;1999.90;999.90;;;;;;;;;;5071011;28;20439;-76
2022/05/23 05:38:16;;;;;;;1999.90;999.90;;;;;;;;;;5097284;27;20527;-77
2022/05/23 05:40:45;;;;;;;1999.90;999.90;;;;;;;;;;5095141;27;20472;-77
2022/05/23 05:43:14;;;;;;;1999.90;999.90;;;;;;;;;;5079740;27;20344;-77
2022/05/23 05:45:43;;;;;;;1999.90;999.90;;;;;;;;;;5082137;28;20516;-78
2022/05/23 05:48:36;;;;;;;1999.90;999.90;;;;;;;;;;5081916;28;21271;-77
2022/05/23 05:51:04;;;;;;;1999.90;999.90;;;;;;;;;;5093317;27;20497;-77
2022/05/23 05:53:34;;;;;;;1999.90;999.90;;;;;;;;;;5095924;27;20402;-77
2022/05/23 05:56:09;;;;;;;1999.90;999.90;;;;;;;;;;5078262;27;20403;-76
2022/05/23 05:58:36;;;;;;;1999.90;999.90;;;;;;;;;;5095043;27;20394;-75
2022/05/23 06:01:04;;;;;;;1999.90;999.90;;;;;;;;;;5093505;27;20480;-74
2022/05/23 06:03:34;;;;;;;1999.90;999.90;;;;;;;;;;5076471;28;20384;-75
2022/05/23 06:11:47;;;;;;;1999.90;999.90;;;;;;;;;;5115682;27;20956;-75
2022/05/23 06:14:16;;;;;;;1999.90;999.90;;;;;;;;;;5082886;27;20391;-75
2022/05/23 06:16:49;;;;;;;1999.90;999.90;;;;;;;;;;5097627;27;20969;-76
2022/05/23 06:19:40;;;;;;;1999.90;999.90;;;;;;;;;;5096648;27;20484;-77
2022/05/23 06:22:19;;;;;;;1999.90;999.90;;;;;;;;;;5081283;27;20537;-77
2022/05/23 06:25:07;;;;;;;1999.90;999.90;;;;;;;;;;5096177;27;20489;-75
2022/05/23 06:27:37;;;;;;;1999.90;999.90;;;;;;;;;;5080059;28;20410;-75
2022/05/23 06:30:09;;;;;;;1999.90;999.90;;;;;;;;;;5079358;27;20414;-75
2022/05/23 06:33:04;;;;;;;1999.90;999.90;;;;;;;;;;5094913;27;20395;-76
2022/05/23 06:35:49;;;;;;;1999.90;999.90;;;;;;;;;;5081471;28;20384;-78
2022/05/23 06:38:22;;;;;;;1999.90;999.90;;;;;;;;;;5080849;27;21049;-76
2022/05/23 06:41:06;;;;;;;1999.90;999.90;;;;;;;;;;5097819;27;20390;-76
2022/05/23 06:44:05;;;;;;;1999.90;999.90;;;;;;;;;;5065434;27;21211;-76
2022/05/23 06:46:51;;;;;;;1999.90;999.90;;;;;;;;;;5098383;27;20533;-76
2022/05/23 06:49:37;;;;;;;1999.90;999.90;;;;;;;;;;5098247;27;20436;-75
2022/05/23 06:52:23;;;;;;;1999.90;999.90;;;;;;;;;;5080631;27;20410;-76
2022/05/23 06:55:12;;;;;;;1999.90;999.90;;;;;;;;;;5096756;27;20415;-77
2022/05/23 06:57:46;;;;;;;1999.90;999.90;;;;;;;;;;5096241;27;20394;-76
2022/05/23 07:00:17;;;;;;;1999.90;999.90;;;;;;;;;;5075857;27;20460;-76
2022/05/23 07:02:55;;;;;;;1999.90;999.90;;;;;;;;;;5078521;27;20399;-75
2022/05/23 07:14:05;;;;;;;1999.90;999.90;;;;;;;;;;5082529;27;20370;-77
2022/05/23 07:16:33;;;;;;;1999.90;999.90;;;;;;;;;;5084825;28;20399;-79
2022/05/23 07:19:06;;;;;;;1999.90;999.90;;;;;;;;;;5084042;27;20344;-76
2022/05/23 07:21:42;;;;;;;1999.90;999.90;;;;;;;;;;5083399;28;20540;-78
2022/05/23 07:24:14;;;;;;;1999.90;999.90;;;;;;;;;;5096922;27;20957;-78
2022/05/23 07:26:51;;;;;;;1999.90;999.90;;;;;;;;;;5089398;27;20390;-76
2022/05/23 07:29:19;;;;;;;1999.90;999.90;;;;;;;;;;5077777;27;20399;-76
2022/05/23 07:31:49;;;;;;;1999.90;999.90;;;;;;;;;;5092113;27;20445;-77
2022/05/23 07:34:17;;;;;;;1999.90;999.90;;;;;;;;;;5094482;27;20409;-75
2022/05/23 07:36:45;;;;;;;1999.90;999.90;;;;;;;;;;5092506;27;20496;-72
2022/05/23 07:39:13;;;;;;;1999.90;999.90;;;;;;;;;;5073694;27;20396;-71
2022/05/23 07:41:48;;;;;;;1999.90;999.90;;;;;;;;;;5087149;27;20926;-74
2022/05/23 07:44:22;;;;;;;1999.90;999.90;;;;;;;;;;5070822;27;20403;-72
2022/05/23 07:46:53;;;;;;;1999.90;999.90;;;;;;;;;;5077079;28;21623;-71
2022/05/23 07:49:22;;;;;;;1999.90;999.90;;;;;;;;;;5068640;27;20420;-69
2022/05/23 07:52:02;;;;;;;1999.90;999.90;;;;;;;;;;5071065;27;20411;-71
2022/05/23 08:00:33;;;;;;;1999.90;999.90;;;;;;;;;;5073718;27;20506;-70
2022/05/23 08:03:16;;;;;;;1999.90;999.90;;;;;;;;;;5083926;27;20402;-69
2022/05/23 08:06:09;;;;;;;1999.90;999.90;;;;;;;;;;5080538;27;21167;-69
2022/05/23 08:08:36;;;;;;;1999.90;999.90;;;;;;;;;;5081988;27;21008;-68
2022/05/23 08:11:08;;;;;;;1999.90;999.90;;;;;;;;;;5058771;27;20951;-68
2022/05/23 08:13:47;;;;;;;1999.90;999.90;;;;;;;;;;5086021;27;20909;-68
2022/05/23 08:16:17;;;;;;;1999.90;999.90;;;;;;;;;;5092549;27;20411;-68
2022/05/23 08:18:45;;;;;;;1999.90;999.90;;;;;;;;;;5072188;27;20401;-72
2022/05/23 08:21:15;;;;;;;1999.90;999.90;;;;;;;;;;5082242;27;20406;-71
2022/05/23 08:23:43;;;;;;;1999.90;999.90;;;;;;;;;;5094429;27;20413;-72
2022/05/23 08:26:17;;;;;;;1999.90;999.90;;;;;;;;;;5091071;27;20393;-72
2022/05/23 08:28:47;;;;;;;1999.90;999.90;;;;;;;;;;5093454;27;20399;-72
2022/05/23 08:31:18;;;;;;;1999.90;999.90;;;;;;;;;;5077071;27;20446;-71
2022/05/23 08:33:58;;;;;;;1999.90;999.90;;;;;;;;;;5071752;27;20412;-73
2022/05/23 08:36:29;;;;;;;1999.90;999.90;;;;;;;;;;5094051;27;20403;-73
2022/05/23 08:38:57;;;;;;;1999.90;999.90;;;;;;;;;;5092270;27;20546;-73
2022/05/23 08:41:33;;;;;;;1999.90;999.90;;;;;;;;;;5076211;28;20913;-73
2022/05/23 08:44:11;;;;;;;1999.90;999.90;;;;;;;;;;5079172;27;20905;-72
2022/05/23 08:46:54;;;;;;;1999.90;999.90;;;;;;;;;;5081162;27;20399;-73
2022/05/23 08:49:28;;;;;;;1999.90;999.90;;;;;;;;;;5093651;27;20403;-71
2022/05/23 08:52:01;;;;;;;1999.90;999.90;;;;;;;;;;5073592;27;20578;-72
2022/05/23 08:54:43;;;;;;;1999.90;999.90;;;;;;;;;;5091850;27;20441;-72
2022/05/23 08:57:33;;;;;;;1999.90;999.90;;;;;;;;;;5088930;27;21114;-73
2022/05/23 09:00:04;;;;;;;1999.90;999.90;;;;;;;;;;5084023;27;20402;-72
2022/05/23 09:02:37;;;;;;;1999.90;999.90;;;;;;;;;;5074736;28;21591;-72
2022/05/23 09:05:21;;;;;;;1999.90;999.90;;;;;;;;;;5079277;27;20480;-73
2022/05/23 09:08:10;;;;;;;1999.90;999.90;;;;;;;;;;5089960;27;20410;-71
2022/05/23 09:10:40;;;;;;;1999.90;999.90;;;;;;;;;;5085890;27;20415;-73
2022/05/23 09:13:09;;;;;;;1999.90;999.90;;;;;;;;;;5089555;27;20406;-73
2022/05/23 09:15:37;;;;;;;1999.90;999.90;;;;;;;;;;5085755;27;20479;-73
2022/05/23 09:18:07;;;;;;;1999.90;999.90;;;;;;;;;;5092466;27;20530;-72
2022/05/23 09:20:38;;;;;;;1999.90;999.90;;;;;;;;;;5088455;27;20411;-72
2022/05/23 09:23:09;;;;;;;1999.90;999.90;;;;;;;;;;5087089;27;20387;-73
2022/05/23 09:25:50;;;;;;;1999.90;999.90;;;;;;;;;;5085077;27;20407;-73
2022/05/23 09:28:21;;;;;;;1999.90;999.90;;;;;;;;;;5091511;27;21266;-73
2022/05/23 09:30:56;;;;;;;1999.90;999.90;;;;;;;;;;5075929;28;20801;-73
2022/05/23 09:33:26;;;;;;;1999.90;999.90;;;;;;;;;;5093925;27;20487;-74
2022/05/23 09:35:55;;;;;;;1999.90;999.90;;;;;;;;;;5091943;27;20482;-72
2022/05/23 09:38:26;;;;;;;1999.90;999.90;;;;;;;;;;5095966;27;20441;-74
2022/05/23 09:40:59;;;;;;;1999.90;999.90;;;;;;;;;;5084941;27;20944;-74
2022/05/23 09:49:11;;;;;;;1999.90;999.90;;;;;;;;;;5092615;27;20426;-75
2022/05/23 09:51:50;;;;;;;1999.90;999.90;;;;;;;;;;5099642;27;20388;-74
2022/05/23 09:54:20;;;;;;;1999.90;999.90;;;;;;;;;;5096851;27;20448;-73
2022/05/23 09:56:50;;;;;;;1999.90;999.90;;;;;;;;;;5077691;27;20488;-73
2022/05/23 09:59:22;;;;;;;1999.90;999.90;;;;;;;;;;5096473;27;20486;-74
2022/05/23 10:01:50;;;;;;;1999.90;999.90;;;;;;;;;;5095556;27;20429;-74
2022/05/23 10:04:22;;;;;;;1999.90;999.90;;;;;;;;;;5087949;27;20394;-75
2022/05/23 10:06:50;;;;;;;1999.90;999.90;;;;;;;;;;5092096;27;20455;-74
2022/05/23 10:09:23;;;;;;;1999.90;999.90;;;;;;;;;;5076946;27;20403;-73
2022/05/23 10:12:10;;;;;;;1999.90;999.90;;;;;;;;;;5094472;27;20467;-75
2022/05/23 10:14:45;;;;;;;1999.90;999.90;;;;;;;;;;5095285;27;20490;-75
2022/05/23 10:17:24;;;;;;;1999.90;999.90;;;;;;;;;;5094681;27;20480;-75
2022/05/23 10:19:54;;;;;;;1999.90;999.90;;;;;;;;;;5095771;27;20399;-74
2022/05/23 10:22:24;;;;;;;1999.90;999.90;;;;;;;;;;5094083;27;20893;-75
2022/05/23 10:24:54;;;;;;;1999.90;999.90;;;;;;;;;;5095892;27;20495;-75
2022/05/23 10:27:32;;;;;;;1999.90;999.90;;;;;;;;;;5091631;27;20427;-74
2022/05/23 10:30:01;;;;;;;1999.90;999.90;;;;;;;;;;5093611;27;21282;-72
2022/05/23 10:32:32;;;;;;;1999.90;999.90;;;;;;;;;;5096705;27;20482;-73
2022/05/23 10:35:06;;;;;;;1999.90;999.90;;;;;;;;;;5094819;27;20426;-70
2022/05/23 10:37:36;;;;;;;1999.90;999.90;;;;;;;;;;5091963;27;20438;-72
2022/05/23 10:42:52;;;;;;;1999.90;999.90;;;;;;;;;;5082213;27;20422;-75
2022/05/23 10:45:29;;;;;;;1999.90;999.90;;;;;;;;;;5098127;27;20387;-70
2022/05/23 10:48:04;;;;;;;1999.90;999.90;;;;;;;;;;5095577;27;20406;-72
2022/05/23 10:50:36;;;;;;;1999.90;999.90;;;;;;;;;;5096977;27;20486;-73
2022/05/23 10:53:08;;;;;;;1999.90;999.90;;;;;;;;;;5071211;27;20418;-72
2022/05/23 10:55:38;;;;;;;1999.90;999.90;;;;;;;;;;5093570;27;20418;-72
2022/05/23 10:58:14;;;;;;;1999.90;999.90;;;;;;;;;;5075105;27;20412;-72
2022/05/23 11:00:47;;;;;;;1999.90;999.90;;;;;;;;;;5096143;27;20423;-71
2022/05/23 11:03:19;;;;;;;1999.90;999.90;;;;;;;;;;5091735;27;20391;-71
2022/05/23 11:05:53;;;;;;;1999.90;999.90;;;;;;;;;;5087141;27;20403;-73
2022/05/23 11:08:36;;;;;;;1999.90;999.90;;;;;;;;;;5068970;27;20415;-75
2022/05/23 11:11:11;;;;;;;1999.90;999.90;;;;;;;;;;5094188;27;20399;-73
2022/05/23 11:13:45;;;;;;;1999.90;999.90;;;;;;;;;;5083364;27;20470;-73
2022/05/23 11:16:19;;;;;;;1999.90;999.90;;;;;;;;;;5097369;27;21134;-74
2022/05/23 11:19:01;;;;;;;1999.90;999.90;;;;;;;;;;5096346;27;21200;-74
2022/05/23 11:21:33;;;;;;;1999.90;999.90;;;;;;;;;;5085503;27;20423;-74
2022/05/23 11:24:05;;;;;;;1999.90;999.90;;;;;;;;;;5098732;27;20533;-74
2022/05/23 11:26:37;;;;;;;1999.90;999.90;;;;;;;;;;5098967;27;21243;-72
2022/05/23 11:34:48;;;;;;;1999.90;999.90;;;;;;;;;;5100807;27;20917;-75
2022/05/23 11:40:08;;;;;;;1999.90;999.90;;;;;;;;;;5095962;27;20502;-76
2022/05/23 11:42:53;;;;;;;1999.90;999.90;;;;;;;;;;5081151;28;20391;-74
2022/05/23 11:48:44;;;;;;;1999.90;999.90;;;;;;;;;;5097386;27;20386;-74
2022/05/23 11:51:18;;;;;;;1999.90;999.90;;;;;;;;;;4996346;28;20424;-74
2022/05/23 11:53:56;;;;;;;1999.90;999.90;;;;;;;;;;5086637;27;20461;-74
2022/05/23 11:56:35;;;;;;;1999.90;999.90;;;;;;;;;;5096013;27;21457;-75
2022/05/23 11:59:04;;;;;;;1999.90;999.90;;;;;;;;;;5097058;27;20485;-74
2022/05/23 12:01:31;;;;;;;1999.90;999.90;;;;;;;;;;5098080;27;20932;-74
2022/05/23 12:04:14;;;;;;;1999.90;999.90;;;;;;;;;;5099109;27;20379;-73
2022/05/23 12:06:47;;;;;;;1999.90;999.90;;;;;;;;;;5096175;27;20403;-74
2022/05/23 12:09:33;;;;;;;1999.90;999.90;;;;;;;;;;5093147;27;20453;-73
2022/05/23 12:12:33;;;;;;;1999.90;999.90;;;;;;;;;;5098754;27;21247;-74
2022/05/23 12:15:02;;;;;;;1999.90;999.90;;;;;;;;;;5098649;27;20476;-75
2022/05/23 12:17:32;;;;;;;1999.90;999.90;;;;;;;;;;5096868;27;20419;-74
2022/05/23 12:20:02;;;;;;;1999.90;999.90;;;;;;;;;;5097798;27;20494;-72
2022/05/23 12:22:37;;;;;;;1999.90;999.90;;;;;;;;;;5079127;28;20434;-75
2022/05/23 12:25:24;;;;;;;1999.90;999.90;;;;;;;;;;5098336;27;21429;-75
2022/05/23 12:28:25;;;;;;;1999.90;999.90;;;;;;;;;;5079711;27;20882;-78
2022/05/23 12:31:09;;;;;;;1999.90;999.90;;;;;;;;;;5090059;27;21720;-78
2022/05/23 12:33:39;;;;;;;1999.90;999.90;;;;;;;;;;5095766;27;20438;-77
2022/05/23 12:36:08;;;;;;;1999.90;999.90;;;;;;;;;;5095068;27;21280;-80
2022/05/23 12:38:43;;;;;;;1999.90;999.90;;;;;;;;;;5097936;27;20387;-77
2022/05/23 12:41:16;;;;;;;1999.90;999.90;;;;;;;;;;5098830;27;20419;-76
2022/05/23 12:43:54;;;;;;;1999.90;999.90;;;;;;;;;;5098505;27;20417;-75
2022/05/23 12:46:29;;;;;;;1999.90;999.90;;;;;;;;;;5098650;27;20423;-78
2022/05/23 12:49:02;;;;;;;1999.90;999.90;;;;;;;;;;5099699;27;20907;-77
2022/05/23 12:51:35;;;;;;;1999.90;999.90;;;;;;;;;;5095192;27;34552;-76
2022/05/23 12:54:13;;;;;;;1999.90;999.90;;;;;;;;;;5099283;27;20407;-75
2022/05/23 12:56:53;;;;;;;1999.90;999.90;;;;;;;;;;5090847;27;20452;-76
2022/05/23 12:59:38;;;;;;;1999.90;999.90;;;;;;;;;;5095639;27;20482;-76
2022/05/23 13:02:09;;;;;;;1999.90;999.90;;;;;;;;;;5099490;27;20388;-76
2022/05/23 13:04:40;;;;;;;1999.90;999.90;;;;;;;;;;5096882;27;21003;-75
2022/05/23 13:07:11;;;;;;;1999.90;999.90;;;;;;;;;;5097558;27;20384;-76
2022/05/23 13:09:42;;;;;;;1999.90;999.90;;;;;;;;;;5097969;27;20419;-76
2022/05/23 13:12:12;;;;;;;1999.90;999.90;;;;;;;;;;5097696;27;20528;-76
2022/05/23 13:14:48;;;;;;;1999.90;999.90;;;;;;;;;;5095114;27;20458;-76
2022/05/23 13:17:28;;;;;;;1999.90;999.90;;;;;;;;;;5096494;27;20400;-75
2022/05/23 13:22:41;;;;;;;1999.90;999.90;;;;;;;;;;5087489;27;20391;-75
2022/05/23 13:25:09;;;;;;;1999.90;999.90;;;;;;;;;;5095825;27;20407;-76
2022/05/23 13:27:38;;;;;;;1999.90;999.90;;;;;;;;;;5097987;27;21101;-79
2022/05/23 13:30:07;;;;;;;1999.90;999.90;;;;;;;;;;5096559;27;20889;-76
2022/05/23 13:32:36;;;;;;;1999.90;999.90;;;;;;;;;;5097577;27;20461;-78
2022/05/23 13:35:18;;;;;;;1999.90;999.90;;;;;;;;;;5097243;27;20508;-79
2022/05/23 13:37:46;;;;;;;1999.90;999.90;;;;;;;;;;5095750;27;20457;-75
2022/05/23 13:40:15;;;;;;;1999.90;999.90;;;;;;;;;;5096935;27;20822;-75
2022/05/23 13:42:43;;;;;;;1999.90;999.90;;;;;;;;;;5097715;27;20894;-77
2022/05/23 13:45:13;;;;;;;1999.90;999.90;;;;;;;;;;5098865;27;20406;-77
2022/05/23 13:47:45;;;;;;;1999.90;999.90;;;;;;;;;;5099418;27;20478;-77
2022/05/23 13:50:15;;;;;;;1999.90;999.90;;;;;;;;;;5096255;27;20410;-76
2022/05/23 13:52:48;;;;;;;1999.90;999.90;;;;;;;;;;5088196;27;20395;-78
2022/05/23 13:55:17;;;;;;;1999.90;999.90;;;;;;;;;;5100227;27;20482;-77
2022/05/23 13:57:48;;;;;;;1999.90;999.90;;;;;;;;;;5099682;27;20456;-76
2022/05/23 14:00:19;;;;;;;1999.90;999.90;;;;;;;;;;5096850;27;20427;-78
2022/05/23 14:02:50;;;;;;;1999.90;999.90;;;;;;;;;;5097550;27;20465;-76
2022/05/23 14:05:19;;;;;;;1999.90;999.90;;;;;;;;;;5099342;27;20407;-78
2022/05/23 14:07:50;;;;;;;1999.90;999.90;;;;;;;;;;5098554;27;20861;-77
2022/05/23 14:10:20;;;;;;;1999.90;999.90;;;;;;;;;;5094450;27;21017;-78
2022/05/23 14:12:48;;;;;;;1999.90;999.90;;;;;;;;;;5097420;27;20386;-76
2022/05/23 14:15:20;;;;;;;1999.90;999.90;;;;;;;;;;5099158;27;20842;-77
2022/05/23 14:17:49;;;;;;;1999.90;999.90;;;;;;;;;;5097878;27;20474;-78
2022/05/23 14:20:22;;;;;;;1999.90;999.90;;;;;;;;;;5096705;27;21043;-77
2022/05/23 14:23:00;;;;;;;1999.90;999.90;;;;;;;;;;5092873;27;20401;-75
2022/05/23 14:25:33;;;;;;;1999.90;999.90;;;;;;;;;;5091768;27;21503;-78
2022/05/23 14:28:07;;;;;;;1999.90;999.90;;;;;;;;;;5093706;27;20442;-77
2022/05/23 14:30:35;;;;;;;1999.90;999.90;;;;;;;;;;5096367;27;20953;-77
2022/05/23 14:33:08;;;;;;;1999.90;999.90;;;;;;;;;;5098929;27;20387;-75
2022/05/23 14:35:37;;;;;;;1999.90;999.90;;;;;;;;;;5101117;27;20407;-78
2022/05/23 14:38:05;;;;;;;1999.90;999.90;;;;;;;;;;5099741;27;20491;-78
2022/05/23 14:40:36;;;;;;;1999.90;999.90;;;;;;;;;;5101898;27;20423;-77
2022/05/23 14:43:07;;;;;;;1999.90;999.90;;;;;;;;;;5097226;27;20449;-77
2022/05/23 14:45:35;;;;;;;1999.90;999.90;;;;;;;;;;5101315;27;20391;-75
2022/05/23 14:48:15;;;;;;;1999.90;999.90;;;;;;;;;;5102372;27;20406;-77
2022/05/23 14:50:44;;;;;;;1999.90;999.90;;;;;;;;;;5101596;27;20461;-79
2022/05/23 14:56:12;;;;;;;1999.90;999.90;;;;;;;;;;5099916;27;20461;-77
2022/05/23 15:01:26;;;;;;;1999.90;999.90;;;;;;;;;;5096802;27;20406;-76
2022/05/23 15:03:56;;;;;;;1999.90;999.90;;;;;;;;;;5100118;27;20404;-80
2022/05/23 15:06:24;;;;;;;1999.90;999.90;;;;;;;;;;5100497;27;20491;-77
2022/05/23 15:08:52;;;;;;;1999.90;999.90;;;;;;;;;;5098668;27;20867;-77
2022/05/23 15:11:22;;;;;;;1999.90;999.90;;;;;;;;;;5099322;27;20488;-76
2022/05/23 15:13:50;;;;;;;1999.90;999.90;;;;;;;;;;5099277;27;20407;-79
2022/05/23 15:16:20;;;;;;;1999.90;999.90;;;;;;;;;;5099982;27;20965;-75
2022/05/23 15:18:47;;;;;;;1999.90;999.90;;;;;;;;;;5087680;27;21087;-77